sensor_id;sensor_type;location;lat;lon;timestamp;pressure;altitude;pressure_sealevel;temperature;humidity
2178;BME280;1095;50.992;6.798;2022-10-16T00:01:29;100487.66;;;12.84;100.00
2178;BME280;1095;50.992;6.798;2022-10-16T00:03:57;100490.44;;;12.83;100.00
2178;BME280;1095;50.992;6.798;2022-10-16T00:06:27;100481.75;;;12.82;100.00
2178;BME280;1095;50.992;6.798;2022-10-16T00:08:54;100489.22;;;12.93;100.00
2178;BME280;1095;50.992;6.798;2022-10-16T00:11:25;100491.56;;;12.88;100.00
2178;BME280;1095;50.992;6.798;2022-10-16T00:13:56;100497.16;;;12.85;100.00
2178;BME280;1095;50.992;6.798;2022-10-16T00:16:23;100504.09;;;12.78;100.00
2178;BME280;1095;50.992;6.798;2022-10-16T00:18:50;100514.59;;;12.78;100.00
2178;BME280;1095;50.992;6.798;2022-10-16T00:21:18;100512.16;;;12.77;100.00
2178;BME280;1095;50.992;6.798;2022-10-16T00:23:46;100512.16;;;12.77;100.00
2178;BME280;1095;50.992;6.798;2022-10-16T00:26:17;100516.78;;;12.75;100.00
2178;BME280;1095;50.992;6.798;2022-10-16T00:28:45;100507.59;;;12.71;100.00
2178;BME280;1095;50.992;6.798;2022-10-16T00:31:15;100505.50;;;12.66;100.00
2178;BME280;1095;50.992;6.798;2022-10-16T00:33:42;100494.53;;;12.62;100.00
2178;BME280;1095;50.992;6.798;2022-10-16T00:36:11;100493.72;;;12.62;100.00
2178;BME280;1095;50.992;6.798;2022-10-16T00:38:38;100491.44;;;12.59;100.00
2178;BME280;1095;50.992;6.798;2022-10-16T00:41:07;100496.03;;;12.57;100.00
2178;BME280;1095;50.992;6.798;2022-10-16T00:43:37;100497.66;;;12.58;100.00
2178;BME280;1095;50.992;6.798;2022-10-16T00:46:10;100489.97;;;12.56;100.00
2178;BME280;1095;50.992;6.798;2022-10-16T00:48:39;100491.59;;;12.57;100.00
2178;BME280;1095;50.992;6.798;2022-10-16T00:51:07;100493.22;;;12.58;100.00
2178;BME280;1095;50.992;6.798;2022-10-16T00:53:34;100486.22;;;12.51;100.00
2178;BME280;1095;50.992;6.798;2022-10-16T00:56:01;100490.97;;;12.47;100.00
2178;BME280;1095;50.992;6.798;2022-10-16T00:58:29;100485.25;;;12.44;100.00
2178;BME280;1095;50.992;6.798;2022-10-16T01:00:56;100489.22;;;12.40;100.00
2178;BME280;1095;50.992;6.798;2022-10-16T01:03:25;100501.03;;;12.36;100.00
2178;BME280;1095;50.992;6.798;2022-10-16T01:06:02;100501.34;;;12.41;100.00
2178;BME280;1095;50.992;6.798;2022-10-16T01:08:39;100504.78;;;12.41;100.00
2178;BME280;1095;50.992;6.798;2022-10-16T01:11:15;100513.13;;;12.45;100.00
2178;BME280;1095;50.992;6.798;2022-10-16T01:13:47;100498.56;;;12.42;100.00
2178;BME280;1095;50.992;6.798;2022-10-16T01:16:19;100513.13;;;12.45;100.00
2178;BME280;1095;50.992;6.798;2022-10-16T01:18:52;100509.88;;;12.43;100.00
2178;BME280;1095;50.992;6.798;2022-10-16T01:21:26;100515.59;;;12.46;100.00
2178;BME280;1095;50.992;6.798;2022-10-16T01:24:06;100511.16;;;12.47;100.00
2178;BME280;1095;50.992;6.798;2022-10-16T01:26:50;100514.09;;;12.52;100.00
2178;BME280;1095;50.992;6.798;2022-10-16T01:29:23;100504.88;;;12.56;100.00
2178;BME280;1095;50.992;6.798;2022-10-16T01:31:54;100492.75;;;12.55;100.00
2178;BME280;1095;50.992;6.798;2022-10-16T01:34:31;100497.31;;;12.61;100.00
2178;BME280;1095;50.992;6.798;2022-10-16T01:37:05;100512.25;;;12.60;100.00
2178;BME280;1095;50.992;6.798;2022-10-16T01:39:38;100520.63;;;12.56;100.00
2178;BME280;1095;50.992;6.798;2022-10-16T01:42:11;100512.91;;;12.62;100.00
2178;BME280;1095;50.992;6.798;2022-10-16T01:44:41;100511.91;;;12.63;100.00
2178;BME280;1095;50.992;6.798;2022-10-16T01:47:13;100513.38;;;12.66;100.00
2178;BME280;1095;50.992;6.798;2022-10-16T01:49:45;100508.28;;;12.65;100.00
2178;BME280;1095;50.992;6.798;2022-10-16T01:52:18;100514.88;;;12.60;100.00
2178;BME280;1095;50.992;6.798;2022-10-16T01:54:50;100516.69;;;12.60;100.00
2178;BME280;1095;50.992;6.798;2022-10-16T01:57:21;100510.13;;;12.56;100.00
2178;BME280;1095;50.992;6.798;2022-10-16T01:59:53;100511.16;;;12.47;100.00
2178;BME280;1095;50.992;6.798;2022-10-16T02:02:22;100511.84;;;12.41;100.00
2178;BME280;1095;50.992;6.798;2022-10-16T02:04:53;100523.50;;;12.38;100.00
2178;BME280;1095;50.992;6.798;2022-10-16T02:07:21;100522.69;;;12.38;100.00
2178;BME280;1095;50.992;6.798;2022-10-16T02:09:48;100522.00;;;12.44;100.00
2178;BME280;1095;50.992;6.798;2022-10-16T02:12:20;100525.13;;;12.39;100.00
2178;BME280;1095;50.992;6.798;2022-10-16T02:14:52;100531.88;;;12.34;100.00
2178;BME280;1095;50.992;6.798;2022-10-16T02:17:20;100541.34;;;12.43;100.00
2178;BME280;1095;50.992;6.798;2022-10-16T02:19:50;100527.44;;;12.34;100.00
2178;BME280;1095;50.992;6.798;2022-10-16T02:22:22;100523.00;;;12.35;100.00
2178;BME280;1095;50.992;6.798;2022-10-16T02:24:54;100525.81;;;12.33;100.00
2178;BME280;1095;50.992;6.798;2022-10-16T02:27:26;100534.03;;;12.30;100.00
2178;BME280;1095;50.992;6.798;2022-10-16T02:30:00;100534.50;;;12.34;100.00
2178;BME280;1095;50.992;6.798;2022-10-16T02:32:33;100535.31;;;12.34;100.00
2178;BME280;1095;50.992;6.798;2022-10-16T02:35:01;100537.47;;;12.30;100.00
2178;BME280;1095;50.992;6.798;2022-10-16T02:37:30;100543.53;;;12.31;100.00
2178;BME280;1095;50.992;6.798;2022-10-16T02:39:58;100545.66;;;12.36;100.00
2178;BME280;1095;50.992;6.798;2022-10-16T02:42:28;100546.78;;;12.33;100.00
2178;BME280;1095;50.992;6.798;2022-10-16T02:45:00;100548.44;;;12.34;100.00
2178;BME280;1095;50.992;6.798;2022-10-16T02:47:26;100537.13;;;12.34;100.00
2178;BME280;1095;50.992;6.798;2022-10-16T02:49:53;100545.16;;;12.32;100.00
2178;BME280;1095;50.992;6.798;2022-10-16T02:52:20;100545.97;;;12.33;100.00
2178;BME280;1095;50.992;6.798;2022-10-16T02:54:49;100535.47;;;12.33;100.00
2178;BME280;1095;50.992;6.798;2022-10-16T02:57:16;100543.34;;;12.33;100.00
2178;BME280;1095;50.992;6.798;2022-10-16T02:59:43;100542.72;;;12.30;100.00
2178;BME280;1095;50.992;6.798;2022-10-16T03:02:11;100539.63;;;12.27;100.00
2178;BME280;1095;50.992;6.798;2022-10-16T03:04:38;100555.22;;;12.28;100.00
2178;BME280;1095;50.992;6.798;2022-10-16T03:07:04;100547.03;;;12.23;100.00
2178;BME280;1095;50.992;6.798;2022-10-16T03:09:31;100545.38;;;12.22;100.00
2178;BME280;1095;50.992;6.798;2022-10-16T03:11:58;100530.63;;;12.21;100.00
2178;BME280;1095;50.992;6.798;2022-10-16T03:14:25;100528.34;;;12.18;100.00
2178;BME280;1095;50.992;6.798;2022-10-16T03:16:51;100527.69;;;12.16;100.00
2178;BME280;1095;50.992;6.798;2022-10-16T03:19:19;100519.47;;;12.19;100.00
2178;BME280;1095;50.992;6.798;2022-10-16T03:21:46;100514.75;;;12.15;100.00
2178;BME280;1095;50.992;6.798;2022-10-16T03:24:13;100528.03;;;12.13;100.00
2178;BME280;1095;50.992;6.798;2022-10-16T03:26:39;100537.38;;;12.08;100.00
2178;BME280;1095;50.992;6.798;2022-10-16T03:29:06;100536.25;;;12.02;100.00
2178;BME280;1095;50.992;6.798;2022-10-16T03:31:33;100526.56;;;12.03;100.00
2178;BME280;1095;50.992;6.798;2022-10-16T03:34:00;100527.72;;;12.00;100.00
2178;BME280;1095;50.992;6.798;2022-10-16T03:36:27;100542.97;;;11.96;100.00
2178;BME280;1095;50.992;6.798;2022-10-16T03:38:54;100535.09;;;11.96;100.00
2178;BME280;1095;50.992;6.798;2022-10-16T03:41:21;100535.59;;;12.00;100.00
2178;BME280;1095;50.992;6.798;2022-10-16T03:43:50;100539.84;;;12.09;100.00
2178;BME280;1095;50.992;6.798;2022-10-16T03:46:17;100519.34;;;12.13;100.00
2178;BME280;1095;50.992;6.798;2022-10-16T03:48:43;100533.25;;;12.21;100.00
2178;BME280;1095;50.992;6.798;2022-10-16T03:51:10;100544.06;;;12.26;100.00
2178;BME280;1095;50.992;6.798;2022-10-16T03:53:38;100556.84;;;12.21;100.00
2178;BME280;1095;50.992;6.798;2022-10-16T03:56:05;100557.50;;;12.23;100.00
2178;BME280;1095;50.992;6.798;2022-10-16T03:58:32;100560.44;;;12.28;100.00
2178;BME280;1095;50.992;6.798;2022-10-16T04:00:58;100556.81;;;12.29;100.00
2178;BME280;1095;50.992;6.798;2022-10-16T04:03:25;100555.66;;;12.32;100.00
2178;BME280;1095;50.992;6.798;2022-10-16T04:05:52;100561.06;;;12.30;100.00
2178;BME280;1095;50.992;6.798;2022-10-16T04:08:18;100563.19;;;12.35;100.00
2178;BME280;1095;50.992;6.798;2022-10-16T04:10:46;100563.50;;;12.40;100.00
2178;BME280;1095;50.992;6.798;2022-10-16T04:13:13;100561.06;;;12.39;100.00
2178;BME280;1095;50.992;6.798;2022-10-16T04:15:40;100559.72;;;12.43;100.00
2178;BME280;1095;50.992;6.798;2022-10-16T04:18:06;100563.34;;;12.42;100.00
2178;BME280;1095;50.992;6.798;2022-10-16T04:20:36;100565.47;;;12.38;100.00
2178;BME280;1095;50.992;6.798;2022-10-16T04:23:03;100577.13;;;12.36;100.00
2178;BME280;1095;50.992;6.798;2022-10-16T04:25:30;100579.44;;;12.30;100.00
2178;BME280;1095;50.992;6.798;2022-10-16T04:27:58;100582.22;;;12.29;100.00
2178;BME280;1095;50.992;6.798;2022-10-16T04:30:25;100571.28;;;12.25;100.00
2178;BME280;1095;50.992;6.798;2022-10-16T04:32:52;100570.13;;;12.28;100.00
2178;BME280;1095;50.992;6.798;2022-10-16T04:35:20;100570.94;;;12.28;100.00
2178;BME280;1095;50.992;6.798;2022-10-16T04:37:47;100565.50;;;12.30;100.00
2178;BME280;1095;50.992;6.798;2022-10-16T04:40:16;100563.34;;;12.34;100.00
2178;BME280;1095;50.992;6.798;2022-10-16T04:42:43;100575.88;;;12.23;100.00
2178;BME280;1095;50.992;6.798;2022-10-16T04:45:11;100579.44;;;12.30;100.00
2178;BME280;1095;50.992;6.798;2022-10-16T04:47:37;100572.53;;;12.38;100.00
2178;BME280;1095;50.992;6.798;2022-10-16T04:50:05;100580.09;;;12.33;100.00
2178;BME280;1095;50.992;6.798;2022-10-16T04:52:32;100582.44;;;12.27;100.00
2178;BME280;1095;50.992;6.798;2022-10-16T04:54:59;100609.91;;;12.40;100.00
2178;BME280;1095;50.992;6.798;2022-10-16T04:57:27;100609.25;;;12.46;100.00
2178;BME280;1095;50.992;6.798;2022-10-16T04:59:54;100609.59;;;12.43;100.00
2178;BME280;1095;50.992;6.798;2022-10-16T05:02:22;100599.44;;;12.40;100.00
2178;BME280;1095;50.992;6.798;2022-10-16T05:04:49;100605.66;;;12.39;100.00
2178;BME280;1095;50.992;6.798;2022-10-16T05:07:16;100612.06;;;12.36;100.00
2178;BME280;1095;50.992;6.798;2022-10-16T05:09:43;100611.56;;;12.33;100.00
2178;BME280;1095;50.992;6.798;2022-10-16T05:12:10;100616.53;;;12.27;100.00
2178;BME280;1095;50.992;6.798;2022-10-16T05:14:37;100623.25;;;12.22;100.00
2178;BME280;1095;50.992;6.798;2022-10-16T05:17:03;100620.97;;;12.19;100.00
2178;BME280;1095;50.992;6.798;2022-10-16T05:19:31;100629.66;;;12.19;100.00
2178;BME280;1095;50.992;6.798;2022-10-16T05:21:58;100616.56;;;12.11;100.00
2178;BME280;1095;50.992;6.798;2022-10-16T05:24:25;100620.50;;;12.07;100.00
2178;BME280;1095;50.992;6.798;2022-10-16T05:26:52;100627.53;;;11.99;100.00
2178;BME280;1095;50.992;6.798;2022-10-16T05:29:19;100626.72;;;11.90;100.00
2178;BME280;1095;50.992;6.798;2022-10-16T05:31:46;100632.63;;;11.92;100.00
2178;BME280;1095;50.992;6.798;2022-10-16T05:34:12;100637.53;;;12.03;100.00
2178;BME280;1095;50.992;6.798;2022-10-16T05:36:40;100634.91;;;12.03;100.00
2178;BME280;1095;50.992;6.798;2022-10-16T05:39:10;100649.84;;;12.03;100.00
2178;BME280;1095;50.992;6.798;2022-10-16T05:41:37;100653.59;;;12.08;100.00
2178;BME280;1095;50.992;6.798;2022-10-16T05:44:04;100654.25;;;12.18;100.00
2178;BME280;1095;50.992;6.798;2022-10-16T05:46:31;100648.69;;;12.21;100.00
2178;BME280;1095;50.992;6.798;2022-10-16T05:48:58;100643.59;;;12.20;100.00
2178;BME280;1095;50.992;6.798;2022-10-16T05:51:25;100640.16;;;12.27;100.00
2178;BME280;1095;50.992;6.798;2022-10-16T05:53:53;100645.72;;;12.24;100.00
2178;BME280;1095;50.992;6.798;2022-10-16T05:56:20;100665.56;;;12.19;100.00
2178;BME280;1095;50.992;6.798;2022-10-16T05:58:46;100664.41;;;12.21;100.00
2178;BME280;1095;50.992;6.798;2022-10-16T06:01:17;100659.66;;;12.17;100.00
2178;BME280;1095;50.992;6.798;2022-10-16T06:03:49;100656.88;;;12.10;100.00
2178;BME280;1095;50.992;6.798;2022-10-16T06:06:18;100669.84;;;12.12;100.00
2178;BME280;1095;50.992;6.798;2022-10-16T06:08:45;100676.56;;;12.06;100.00
2178;BME280;1095;50.992;6.798;2022-10-16T06:11:18;100689.50;;;12.08;100.00
2178;BME280;1095;50.992;6.798;2022-10-16T06:13:45;100680.97;;;12.06;100.00
2178;BME280;1095;50.992;6.798;2022-10-16T06:16:15;100698.53;;;12.21;100.00
2178;BME280;1095;50.992;6.798;2022-10-16T06:18:41;100683.44;;;12.15;100.00
2178;BME280;1095;50.992;6.798;2022-10-16T06:21:10;100684.75;;;12.11;100.00
2178;BME280;1095;50.992;6.798;2022-10-16T06:23:37;100678.53;;;12.20;100.00
2178;BME280;1095;50.992;6.798;2022-10-16T06:26:06;100701.78;;;12.32;100.00
2178;BME280;1095;50.992;6.798;2022-10-16T06:28:35;100695.53;;;12.41;100.00
2178;BME280;1095;50.992;6.798;2022-10-16T06:31:03;100709.63;;;12.40;100.00
2178;BME280;1095;50.992;6.798;2022-10-16T06:33:31;100685.69;;;12.35;100.00
2178;BME280;1095;50.992;6.798;2022-10-16T06:36:01;100699.16;;;12.40;100.00
2178;BME280;1095;50.992;6.798;2022-10-16T06:38:29;100718.66;;;12.53;100.00
2178;BME280;1095;50.992;6.798;2022-10-16T06:40:56;100728.66;;;12.58;100.00
2178;BME280;1095;50.992;6.798;2022-10-16T06:43:22;100712.56;;;12.61;100.00
2178;BME280;1095;50.992;6.798;2022-10-16T06:45:54;100732.56;;;12.70;100.00
2178;BME280;1095;50.992;6.798;2022-10-16T06:48:22;100722.91;;;12.71;100.00
2178;BME280;1095;50.992;6.798;2022-10-16T06:50:56;100729.91;;;12.78;100.00
2178;BME280;1095;50.992;6.798;2022-10-16T06:53:23;100750.88;;;12.94;100.00
2178;BME280;1095;50.992;6.798;2022-10-16T06:55:50;100745.28;;;12.98;100.00
2178;BME280;1095;50.992;6.798;2022-10-16T06:58:17;100749.06;;;12.95;100.00
2178;BME280;1095;50.992;6.798;2022-10-16T07:00:44;100756.78;;;13.05;100.00
2178;BME280;1095;50.992;6.798;2022-10-16T07:03:12;100764.34;;;13.16;100.00
2178;BME280;1095;50.992;6.798;2022-10-16T07:05:40;100765.47;;;13.21;100.00
2178;BME280;1095;50.992;6.798;2022-10-16T07:08:07;100770.31;;;13.33;100.00
2178;BME280;1095;50.992;6.798;2022-10-16T07:10:34;100768.22;;;13.28;100.00
2178;BME280;1095;50.992;6.798;2022-10-16T07:13:01;100749.69;;;13.21;100.00
2178;BME280;1095;50.992;6.798;2022-10-16T07:15:27;100784.47;;;13.93;100.00
2178;BME280;1095;50.992;6.798;2022-10-16T07:17:54;100783.34;;;14.42;100.00
2178;BME280;1095;50.992;6.798;2022-10-16T07:20:22;100780.22;;;14.76;100.00
2178;BME280;1095;50.992;6.798;2022-10-16T07:22:49;100803.56;;;14.64;100.00
2178;BME280;1095;50.992;6.798;2022-10-16T07:25:15;100806.63;;;14.53;100.00
2178;BME280;1095;50.992;6.798;2022-10-16T07:27:42;100796.66;;;14.17;100.00
2178;BME280;1095;50.992;6.798;2022-10-16T07:30:09;100805.31;;;14.03;100.00
2178;BME280;1095;50.992;6.798;2022-10-16T07:32:36;100817.56;;;13.88;100.00
2178;BME280;1095;50.992;6.798;2022-10-16T07:35:03;100808.69;;;13.89;100.00
2178;BME280;1095;50.992;6.798;2022-10-16T07:37:32;100810.44;;;14.19;100.00
2178;BME280;1095;50.992;6.798;2022-10-16T07:39:59;100808.09;;;14.24;100.00
2178;BME280;1095;50.992;6.798;2022-10-16T07:42:28;100791.34;;;14.03;100.00
2178;BME280;1095;50.992;6.798;2022-10-16T07:44:55;100807.63;;;13.98;100.00
2178;BME280;1095;50.992;6.798;2022-10-16T07:47:27;100808.03;;;13.87;100.00
2178;BME280;1095;50.992;6.798;2022-10-16T07:49:54;100827.38;;;13.94;100.00
2178;BME280;1095;50.992;6.798;2022-10-16T07:52:23;100824.19;;;14.07;100.00
2178;BME280;1095;50.992;6.798;2022-10-16T07:54:54;100830.28;;;14.07;100.00
2178;BME280;1095;50.992;6.798;2022-10-16T07:57:21;100836.06;;;14.25;100.00
2178;BME280;1095;50.992;6.798;2022-10-16T07:59:48;100840.34;;;15.10;100.00
2178;BME280;1095;50.992;6.798;2022-10-16T08:02:15;100846.06;;;15.87;98.87
2178;BME280;1095;50.992;6.798;2022-10-16T08:04:53;100855.28;;;16.76;94.49
2178;BME280;1095;50.992;6.798;2022-10-16T08:07:20;100856.00;;;17.47;90.17
2178;BME280;1095;50.992;6.798;2022-10-16T08:09:56;100856.03;;;17.95;87.15
2178;BME280;1095;50.992;6.798;2022-10-16T08:12:24;100852.13;;;17.98;85.38
2178;BME280;1095;50.992;6.798;2022-10-16T08:14:50;100851.44;;;18.30;84.22
2178;BME280;1095;50.992;6.798;2022-10-16T08:17:17;100866.72;;;18.48;84.12
2178;BME280;1095;50.992;6.798;2022-10-16T08:19:44;100857.97;;;17.73;84.53
2178;BME280;1095;50.992;6.798;2022-10-16T08:22:12;100853.09;;;17.08;87.48
2178;BME280;1095;50.992;6.798;2022-10-16T08:24:41;100856.16;;;16.62;90.17
2178;BME280;1095;50.992;6.798;2022-10-16T08:27:09;100862.34;;;16.48;91.71
2178;BME280;1095;50.992;6.798;2022-10-16T08:29:36;100862.28;;;16.84;91.38
2178;BME280;1095;50.992;6.798;2022-10-16T08:32:04;100857.41;;;17.43;88.22
2178;BME280;1095;50.992;6.798;2022-10-16T08:34:33;100876.78;;;17.92;86.75
2178;BME280;1095;50.992;6.798;2022-10-16T08:37:02;100872.53;;;18.04;85.85
2178;BME280;1095;50.992;6.798;2022-10-16T08:39:29;100876.03;;;18.17;84.41
2178;BME280;1095;50.992;6.798;2022-10-16T08:42:13;100880.06;;;18.00;84.77
2178;BME280;1095;50.992;6.798;2022-10-16T08:45:02;100883.53;;;18.07;83.84
2178;BME280;1095;50.992;6.798;2022-10-16T08:47:42;100883.81;;;17.71;84.11
2178;BME280;1095;50.992;6.798;2022-10-16T08:50:13;100884.53;;;17.58;86.39
2178;BME280;1095;50.992;6.798;2022-10-16T08:52:42;100890.97;;;17.49;85.81
2178;BME280;1095;50.992;6.798;2022-10-16T08:55:19;100887.56;;;17.21;86.80
2178;BME280;1095;50.992;6.798;2022-10-16T08:57:50;100901.34;;;17.16;87.31
2178;BME280;1095;50.992;6.798;2022-10-16T09:00:18;100895.25;;;17.16;87.93
2178;BME280;1095;50.992;6.798;2022-10-16T09:02:50;100893.50;;;17.02;86.57
2178;BME280;1095;50.992;6.798;2022-10-16T09:05:26;100888.38;;;16.94;86.99
2178;BME280;1095;50.992;6.798;2022-10-16T09:08:03;100889.72;;;17.11;86.37
2178;BME280;1095;50.992;6.798;2022-10-16T09:10:42;100882.41;;;17.13;85.92
2178;BME280;1095;50.992;6.798;2022-10-16T09:13:18;100893.63;;;17.15;86.52
2178;BME280;1095;50.992;6.798;2022-10-16T09:15:52;100894.69;;;17.20;85.45
2178;BME280;1095;50.992;6.798;2022-10-16T09:18:26;100888.84;;;17.04;85.47
2178;BME280;1095;50.992;6.798;2022-10-16T09:21:06;100877.00;;;16.93;85.39
2178;BME280;1095;50.992;6.798;2022-10-16T09:23:36;100887.44;;;17.01;85.55
2178;BME280;1095;50.992;6.798;2022-10-16T09:26:04;100883.56;;;17.04;85.57
2178;BME280;1095;50.992;6.798;2022-10-16T09:28:33;100894.00;;;17.12;86.41
2178;BME280;1095;50.992;6.798;2022-10-16T09:30:59;100888.03;;;17.03;86.37
2178;BME280;1095;50.992;6.798;2022-10-16T09:33:29;100893.63;;;17.15;85.69
2178;BME280;1095;50.992;6.798;2022-10-16T09:35:59;100903.03;;;17.24;86.40
2178;BME280;1095;50.992;6.798;2022-10-16T09:38:27;100895.53;;;17.28;85.11
2178;BME280;1095;50.992;6.798;2022-10-16T09:40:55;100893.94;;;17.33;84.40
2178;BME280;1095;50.992;6.798;2022-10-16T09:43:25;100891.78;;;17.43;84.34
2178;BME280;1095;50.992;6.798;2022-10-16T09:45:59;100900.16;;;17.53;83.63
2178;BME280;1095;50.992;6.798;2022-10-16T09:48:37;100893.34;;;17.66;83.14
2178;BME280;1095;50.992;6.798;2022-10-16T09:51:15;100893.88;;;17.54;81.97
2178;BME280;1095;50.992;6.798;2022-10-16T09:53:45;100896.06;;;17.51;81.72
2178;BME280;1095;50.992;6.798;2022-10-16T09:56:21;100906.50;;;17.59;81.56
2178;BME280;1095;50.992;6.798;2022-10-16T09:58:50;100910.91;;;17.73;81.26
2178;BME280;1095;50.992;6.798;2022-10-16T10:01:19;100913.59;;;17.80;81.66
2178;BME280;1095;50.992;6.798;2022-10-16T10:03:47;100898.34;;;17.88;80.90
2178;BME280;1095;50.992;6.798;2022-10-16T10:06:18;100895.34;;;18.05;80.66
2178;BME280;1095;50.992;6.798;2022-10-16T10:09:00;100902.63;;;17.96;79.91
2178;BME280;1095;50.992;6.798;2022-10-16T10:11:53;100892.44;;;17.86;79.23
2178;BME280;1095;50.992;6.798;2022-10-16T10:14:26;100899.63;;;18.06;78.56
2178;BME280;1095;50.992;6.798;2022-10-16T10:17:10;100891.53;;;18.20;76.39
2178;BME280;1095;50.992;6.798;2022-10-16T10:19:39;100891.97;;;18.31;76.95
2178;BME280;1095;50.992;6.798;2022-10-16T10:22:16;100895.66;;;18.36;77.04
2178;BME280;1095;50.992;6.798;2022-10-16T10:24:44;100896.69;;;18.42;76.40
2178;BME280;1095;50.992;6.798;2022-10-16T10:27:15;100888.75;;;18.42;74.91
2178;BME280;1095;50.992;6.798;2022-10-16T10:29:51;100894.84;;;18.36;74.62
2178;BME280;1095;50.992;6.798;2022-10-16T10:32:33;100900.13;;;18.36;75.81
2178;BME280;1095;50.992;6.798;2022-10-16T10:35:14;100899.34;;;18.55;76.19
2178;BME280;1095;50.992;6.798;2022-10-16T10:37:54;100924.69;;;18.64;75.84
2178;BME280;1095;50.992;6.798;2022-10-16T10:40:34;100910.75;;;18.55;75.62
2178;BME280;1095;50.992;6.798;2022-10-16T10:43:13;100916.94;;;18.76;75.67
2178;BME280;1095;50.992;6.798;2022-10-16T10:45:43;100914.91;;;18.84;74.65
2178;BME280;1095;50.992;6.798;2022-10-16T10:48:19;100908.78;;;18.71;74.28
2178;BME280;1095;50.992;6.798;2022-10-16T10:50:52;100905.06;;;18.58;75.41
2178;BME280;1095;50.992;6.798;2022-10-16T10:53:24;100906.28;;;18.56;75.41
2178;BME280;1095;50.992;6.798;2022-10-16T10:55:56;100908.38;;;18.67;76.35
2178;BME280;1095;50.992;6.798;2022-10-16T10:58:57;100901.84;;;18.76;75.51
2178;BME280;1095;50.992;6.798;2022-10-16T11:01:35;100904.28;;;18.98;74.66
2178;BME280;1095;50.992;6.798;2022-10-16T11:04:19;100907.97;;;19.23;73.89
2178;BME280;1095;50.992;6.798;2022-10-16T11:06:56;100905.94;;;18.79;73.22
2178;BME280;1095;50.992;6.798;2022-10-16T11:09:27;100906.13;;;18.64;73.93
2178;BME280;1095;50.992;6.798;2022-10-16T11:11:57;100914.63;;;18.53;74.76
2178;BME280;1095;50.992;6.798;2022-10-16T11:14:28;100911.56;;;18.56;74.97
2178;BME280;1095;50.992;6.798;2022-10-16T11:16:58;100920.22;;;18.84;75.10
2178;BME280;1095;50.992;6.798;2022-10-16T11:19:35;100916.53;;;18.79;73.78
2178;BME280;1095;50.992;6.798;2022-10-16T11:22:07;100919.38;;;18.71;73.88
2178;BME280;1095;50.992;6.798;2022-10-16T11:24:42;100916.75;;;18.71;73.94
2178;BME280;1095;50.992;6.798;2022-10-16T11:27:15;100926.75;;;18.88;73.60
2178;BME280;1095;50.992;6.798;2022-10-16T11:29:49;100924.69;;;19.17;73.88
2178;BME280;1095;50.992;6.798;2022-10-16T11:32:24;100922.25;;;19.29;72.54
2178;BME280;1095;50.992;6.798;2022-10-16T11:34:57;100917.75;;;19.36;72.43
2178;BME280;1095;50.992;6.798;2022-10-16T11:37:30;100910.38;;;19.58;71.04
2178;BME280;1095;50.992;6.798;2022-10-16T11:40:09;100926.69;;;19.68;72.42
2178;BME280;1095;50.992;6.798;2022-10-16T11:42:44;100930.16;;;19.42;71.52
2178;BME280;1095;50.992;6.798;2022-10-16T11:45:24;100930.41;;;19.20;71.85
2178;BME280;1095;50.992;6.798;2022-10-16T11:48:00;100933.69;;;19.03;72.12
2178;BME280;1095;50.992;6.798;2022-10-16T11:50:34;100920.22;;;19.11;72.15
2178;BME280;1095;50.992;6.798;2022-10-16T11:53:13;100936.13;;;19.37;72.02
2178;BME280;1095;50.992;6.798;2022-10-16T11:55:43;100934.50;;;19.30;72.35
2178;BME280;1095;50.992;6.798;2022-10-16T11:58:19;100929.56;;;19.60;72.17
2178;BME280;1095;50.992;6.798;2022-10-16T12:00:55;100910.78;;;19.54;71.72
2178;BME280;1095;50.992;6.798;2022-10-16T12:03:27;100929.94;;;19.70;71.24
2178;BME280;1095;50.992;6.798;2022-10-16T12:06:06;100932.44;;;19.51;71.25
2178;BME280;1095;50.992;6.798;2022-10-16T12:08:37;100931.03;;;19.36;71.76
2178;BME280;1095;50.992;6.798;2022-10-16T12:11:09;100939.16;;;19.47;71.60
2178;BME280;1095;50.992;6.798;2022-10-16T12:13:37;100930.22;;;19.29;70.93
2178;BME280;1095;50.992;6.798;2022-10-16T12:16:21;100928.78;;;19.26;71.55
2178;BME280;1095;50.992;6.798;2022-10-16T12:18:48;100935.72;;;19.27;71.82
2178;BME280;1095;50.992;6.798;2022-10-16T12:21:17;100945.06;;;19.49;71.88
2178;BME280;1095;50.992;6.798;2022-10-16T12:23:49;100932.00;;;19.68;71.10
2178;BME280;1095;50.992;6.798;2022-10-16T12:26:24;100927.28;;;19.83;71.08
2178;BME280;1095;50.992;6.798;2022-10-16T12:28:52;100910.53;;;19.82;71.00
2178;BME280;1095;50.992;6.798;2022-10-16T12:31:19;100909.53;;;19.64;70.30
2178;BME280;1095;50.992;6.798;2022-10-16T12:33:57;100913.88;;;19.25;71.24
2178;BME280;1095;50.992;6.798;2022-10-16T12:36:30;100910.00;;;19.21;71.39
2178;BME280;1095;50.992;6.798;2022-10-16T12:38:58;100907.78;;;19.11;71.84
2178;BME280;1095;50.992;6.798;2022-10-16T12:41:28;100903.88;;;19.14;72.57
2178;BME280;1095;50.992;6.798;2022-10-16T12:43:55;100912.47;;;19.22;71.40
2178;BME280;1095;50.992;6.798;2022-10-16T12:46:37;100903.84;;;19.60;70.51
2178;BME280;1095;50.992;6.798;2022-10-16T12:49:30;100906.38;;;19.86;70.34
2178;BME280;1095;50.992;6.798;2022-10-16T12:52:04;100905.09;;;20.02;68.11
2178;BME280;1095;50.992;6.798;2022-10-16T12:54:34;100909.41;;;19.97;67.83
2178;BME280;1095;50.992;6.798;2022-10-16T12:57:27;100917.56;;;20.08;67.33
2178;BME280;1095;50.992;6.798;2022-10-16T13:00:04;100924.72;;;20.01;67.86
2178;BME280;1095;50.992;6.798;2022-10-16T13:03:03;100923.31;;;19.92;67.50
2178;BME280;1095;50.992;6.798;2022-10-16T13:05:58;100914.72;;;20.03;67.60
2178;BME280;1095;50.992;6.798;2022-10-16T13:08:43;100910.78;;;20.12;67.05
2178;BME280;1095;50.992;6.798;2022-10-16T13:11:22;100906.78;;;20.35;67.17
2178;BME280;1095;50.992;6.798;2022-10-16T13:16:51;100907.97;;;20.01;67.66
2178;BME280;1095;50.992;6.798;2022-10-16T13:19:28;100907.66;;;19.84;67.81
2178;BME280;1095;50.992;6.798;2022-10-16T13:22:03;100911.38;;;19.70;69.06
2178;BME280;1095;50.992;6.798;2022-10-16T13:24:55;100915.28;;;19.61;69.60
2178;BME280;1095;50.992;6.798;2022-10-16T13:27:35;100910.56;;;19.63;69.96